sensor_id;sensor_type;location;lat;lon;timestamp;temperature;humidity
45619;DHT22;31343;47.520;19.144;2023-04-03T00:01:00;8.80;99.90
45619;DHT22;31343;47.520;19.144;2023-04-03T00:03:26;8.60;99.90
45619;DHT22;31343;47.520;19.144;2023-04-03T00:05:52;8.70;99.90
45619;DHT22;31343;47.520;19.144;2023-04-03T00:08:18;8.70;99.90
45619;DHT22;31343;47.520;19.144;2023-04-03T00:10:43;8.60;99.90
45619;DHT22;31343;47.520;19.144;2023-04-03T00:13:10;8.50;99.90
45619;DHT22;31343;47.520;19.144;2023-04-03T00:15:36;8.60;99.90
45619;DHT22;31343;47.520;19.144;2023-04-03T00:18:03;8.50;99.90
45619;DHT22;31343;47.520;19.144;2023-04-03T00:20:29;8.50;99.90
45619;DHT22;31343;47.520;19.144;2023-04-03T00:22:55;8.60;99.90
45619;DHT22;31343;47.520;19.144;2023-04-03T00:25:21;8.50;99.90
45619;DHT22;31343;47.520;19.144;2023-04-03T00:27:47;8.40;99.90
45619;DHT22;31343;47.520;19.144;2023-04-03T00:30:16;8.30;99.90
45619;DHT22;31343;47.520;19.144;2023-04-03T00:32:42;8.40;99.90
45619;DHT22;31343;47.520;19.144;2023-04-03T00:35:08;8.40;99.90
45619;DHT22;31343;47.520;19.144;2023-04-03T00:37:34;8.30;99.90
45619;DHT22;31343;47.520;19.144;2023-04-03T00:40:00;8.30;99.90
45619;DHT22;31343;47.520;19.144;2023-04-03T00:42:26;8.30;99.90
45619;DHT22;31343;47.520;19.144;2023-04-03T00:47:26;8.20;99.90
45619;DHT22;31343;47.520;19.144;2023-04-03T00:49:52;8.20;99.90
45619;DHT22;31343;47.520;19.144;2023-04-03T00:52:22;8.30;99.90
45619;DHT22;31343;47.520;19.144;2023-04-03T00:54:50;8.30;99.90
45619;DHT22;31343;47.520;19.144;2023-04-03T00:57:18;8.30;99.90
45619;DHT22;31343;47.520;19.144;2023-04-03T00:59:46;8.20;99.90
45619;DHT22;31343;47.520;19.144;2023-04-03T01:02:14;8.20;99.90
45619;DHT22;31343;47.520;19.144;2023-04-03T01:04:41;8.10;99.90
45619;DHT22;31343;47.520;19.144;2023-04-03T01:07:08;8.10;99.90
45619;DHT22;31343;47.520;19.144;2023-04-03T01:09:36;8.10;99.90
45619;DHT22;31343;47.520;19.144;2023-04-03T01:14:53;8.10;99.90
45619;DHT22;31343;47.520;19.144;2023-04-03T01:17:40;8.10;99.90
45619;DHT22;31343;47.520;19.144;2023-04-03T01:25:49;8.00;99.90
45619;DHT22;31343;47.520;19.144;2023-04-03T01:28:30;8.00;99.90
45619;DHT22;31343;47.520;19.144;2023-04-03T01:33:26;8.10;99.90
45619;DHT22;31343;47.520;19.144;2023-04-03T01:35:51;8.10;99.90
45619;DHT22;31343;47.520;19.144;2023-04-03T01:38:17;8.00;99.90
45619;DHT22;31343;47.520;19.144;2023-04-03T01:40:43;7.90;99.90
45619;DHT22;31343;47.520;19.144;2023-04-03T01:43:09;8.00;99.90
45619;DHT22;31343;47.520;19.144;2023-04-03T01:45:34;8.10;99.90
45619;DHT22;31343;47.520;19.144;2023-04-03T01:48:00;8.10;99.90
45619;DHT22;31343;47.520;19.144;2023-04-03T01:50:26;8.10;99.90
45619;DHT22;31343;47.520;19.144;2023-04-03T01:52:51;8.00;99.90
45619;DHT22;31343;47.520;19.144;2023-04-03T01:55:17;8.00;99.90
45619;DHT22;31343;47.520;19.144;2023-04-03T01:57:43;8.00;99.90
45619;DHT22;31343;47.520;19.144;2023-04-03T02:00:09;8.00;99.90
45619;DHT22;31343;47.520;19.144;2023-04-03T02:02:35;7.90;99.90
45619;DHT22;31343;47.520;19.144;2023-04-03T02:05:01;8.00;99.90
45619;DHT22;31343;47.520;19.144;2023-04-03T02:07:26;7.90;99.90
45619;DHT22;31343;47.520;19.144;2023-04-03T02:09:52;8.00;99.90
45619;DHT22;31343;47.520;19.144;2023-04-03T02:12:18;8.00;99.90
45619;DHT22;31343;47.520;19.144;2023-04-03T02:14:44;8.00;99.90
45619;DHT22;31343;47.520;19.144;2023-04-03T02:17:09;7.80;99.90
45619;DHT22;31343;47.520;19.144;2023-04-03T02:19:35;7.80;99.90
45619;DHT22;31343;47.520;19.144;2023-04-03T02:22:03;7.70;99.90
45619;DHT22;31343;47.520;19.144;2023-04-03T02:24:29;7.70;99.90
45619;DHT22;31343;47.520;19.144;2023-04-03T02:26:55;7.80;99.90
45619;DHT22;31343;47.520;19.144;2023-04-03T02:29:20;7.80;99.90
45619;DHT22;31343;47.520;19.144;2023-04-03T02:31:46;7.60;99.90
45619;DHT22;31343;47.520;19.144;2023-04-03T02:34:12;7.60;99.90
45619;DHT22;31343;47.520;19.144;2023-04-03T02:36:38;7.60;99.90
45619;DHT22;31343;47.520;19.144;2023-04-03T02:39:03;7.50;99.90
45619;DHT22;31343;47.520;19.144;2023-04-03T02:41:29;7.60;99.90
45619;DHT22;31343;47.520;19.144;2023-04-03T02:44:01;7.40;99.90
45619;DHT22;31343;47.520;19.144;2023-04-03T02:46:27;7.40;99.90
45619;DHT22;31343;47.520;19.144;2023-04-03T02:48:53;7.40;99.90
45619;DHT22;31343;47.520;19.144;2023-04-03T02:51:19;7.40;99.90
45619;DHT22;31343;47.520;19.144;2023-04-03T02:53:44;7.40;99.90
45619;DHT22;31343;47.520;19.144;2023-04-03T02:56:10;7.40;99.90
45619;DHT22;31343;47.520;19.144;2023-04-03T02:58:36;7.40;99.90
45619;DHT22;31343;47.520;19.144;2023-04-03T03:01:02;7.30;99.90
45619;DHT22;31343;47.520;19.144;2023-04-03T03:03:28;7.30;99.90
45619;DHT22;31343;47.520;19.144;2023-04-03T03:06:03;7.30;99.90
45619;DHT22;31343;47.520;19.144;2023-04-03T03:08:31;7.30;99.90
45619;DHT22;31343;47.520;19.144;2023-04-03T03:10:57;7.30;99.90
45619;DHT22;31343;47.520;19.144;2023-04-03T03:13:23;7.30;99.90
45619;DHT22;31343;47.520;19.144;2023-04-03T03:15:50;7.10;99.90
45619;DHT22;31343;47.520;19.144;2023-04-03T03:18:17;7.10;99.90
45619;DHT22;31343;47.520;19.144;2023-04-03T03:20:43;7.10;99.90
45619;DHT22;31343;47.520;19.144;2023-04-03T03:23:10;7.20;99.90
45619;DHT22;31343;47.520;19.144;2023-04-03T03:25:41;7.10;99.90
45619;DHT22;31343;47.520;19.144;2023-04-03T03:28:07;7.20;99.90
45619;DHT22;31343;47.520;19.144;2023-04-03T03:30:34;7.10;99.90
45619;DHT22;31343;47.520;19.144;2023-04-03T03:33:01;7.10;99.90
45619;DHT22;31343;47.520;19.144;2023-04-03T03:35:26;7.10;99.90
45619;DHT22;31343;47.520;19.144;2023-04-03T03:37:52;7.10;99.90
45619;DHT22;31343;47.520;19.144;2023-04-03T03:40:18;7.00;99.90
45619;DHT22;31343;47.520;19.144;2023-04-03T03:42:44;6.90;99.90
45619;DHT22;31343;47.520;19.144;2023-04-03T03:45:10;6.90;99.90
45619;DHT22;31343;47.520;19.144;2023-04-03T03:47:36;7.00;99.90
45619;DHT22;31343;47.520;19.144;2023-04-03T03:50:02;6.90;99.90
45619;DHT22;31343;47.520;19.144;2023-04-03T03:52:28;7.00;99.90
45619;DHT22;31343;47.520;19.144;2023-04-03T03:54:55;6.90;99.90
45619;DHT22;31343;47.520;19.144;2023-04-03T03:57:22;6.90;99.90
45619;DHT22;31343;47.520;19.144;2023-04-03T03:59:48;6.90;99.90
45619;DHT22;31343;47.520;19.144;2023-04-03T04:02:14;6.90;99.90
45619;DHT22;31343;47.520;19.144;2023-04-03T04:04:40;6.90;99.90
45619;DHT22;31343;47.520;19.144;2023-04-03T04:07:06;6.80;99.90
45619;DHT22;31343;47.520;19.144;2023-04-03T04:09:32;6.80;99.90
45619;DHT22;31343;47.520;19.144;2023-04-03T04:11:58;6.80;99.90
45619;DHT22;31343;47.520;19.144;2023-04-03T04:14:24;6.70;99.90
45619;DHT22;31343;47.520;19.144;2023-04-03T04:16:50;6.60;99.90
45619;DHT22;31343;47.520;19.144;2023-04-03T04:19:16;6.70;99.90
45619;DHT22;31343;47.520;19.144;2023-04-03T04:21:43;6.60;99.90
45619;DHT22;31343;47.520;19.144;2023-04-03T04:24:09;6.60;99.90
45619;DHT22;31343;47.520;19.144;2023-04-03T04:26:34;6.60;99.90
45619;DHT22;31343;47.520;19.144;2023-04-03T04:29:00;6.70;99.90
45619;DHT22;31343;47.520;19.144;2023-04-03T04:31:26;6.60;99.90
45619;DHT22;31343;47.520;19.144;2023-04-03T04:33:52;6.50;99.90
45619;DHT22;31343;47.520;19.144;2023-04-03T04:36:18;6.50;99.90
45619;DHT22;31343;47.520;19.144;2023-04-03T04:38:44;6.40;99.90
45619;DHT22;31343;47.520;19.144;2023-04-03T04:41:09;6.40;99.90
45619;DHT22;31343;47.520;19.144;2023-04-03T04:43:35;6.30;99.90
45619;DHT22;31343;47.520;19.144;2023-04-03T04:46:07;6.20;99.90
45619;DHT22;31343;47.520;19.144;2023-04-03T04:48:35;6.30;99.90
45619;DHT22;31343;47.520;19.144;2023-04-03T04:51:01;6.20;99.90
45619;DHT22;31343;47.520;19.144;2023-04-03T04:53:27;6.10;99.90
45619;DHT22;31343;47.520;19.144;2023-04-03T04:55:53;6.20;99.90
45619;DHT22;31343;47.520;19.144;2023-04-03T04:58:19;6.30;99.90
45619;DHT22;31343;47.520;19.144;2023-04-03T05:00:46;6.30;99.90
45619;DHT22;31343;47.520;19.144;2023-04-03T05:03:13;6.50;99.90
45619;DHT22;31343;47.520;19.144;2023-04-03T05:05:39;6.40;99.90
45619;DHT22;31343;47.520;19.144;2023-04-03T05:08:05;6.50;99.90
45619;DHT22;31343;47.520;19.144;2023-04-03T05:10:32;6.50;99.90
45619;DHT22;31343;47.520;19.144;2023-04-03T05:12:58;6.50;99.90
45619;DHT22;31343;47.520;19.144;2023-04-03T05:15:24;6.60;99.90
45619;DHT22;31343;47.520;19.144;2023-04-03T05:17:50;6.70;99.90
45619;DHT22;31343;47.520;19.144;2023-04-03T05:20:17;6.80;99.90
45619;DHT22;31343;47.520;19.144;2023-04-03T05:22:44;6.80;99.90
45619;DHT22;31343;47.520;19.144;2023-04-03T05:25:09;6.80;99.90
45619;DHT22;31343;47.520;19.144;2023-04-03T05:27:35;6.90;99.90
45619;DHT22;31343;47.520;19.144;2023-04-03T05:30:02;6.90;99.90
45619;DHT22;31343;47.520;19.144;2023-04-03T05:32:28;7.00;99.90
45619;DHT22;31343;47.520;19.144;2023-04-03T05:34:54;7.00;99.90
45619;DHT22;31343;47.520;19.144;2023-04-03T05:37:20;7.00;99.90
45619;DHT22;31343;47.520;19.144;2023-04-03T05:39:47;7.10;99.90
45619;DHT22;31343;47.520;19.144;2023-04-03T05:42:13;7.10;99.90
45619;DHT22;31343;47.520;19.144;2023-04-03T05:44:40;7.20;99.90
45619;DHT22;31343;47.520;19.144;2023-04-03T05:47:06;7.30;99.90
45619;DHT22;31343;47.520;19.144;2023-04-03T05:49:32;7.30;99.90
45619;DHT22;31343;47.520;19.144;2023-04-03T05:51:57;7.60;99.90
45619;DHT22;31343;47.520;19.144;2023-04-03T05:54:26;7.50;99.90
45619;DHT22;31343;47.520;19.144;2023-04-03T05:56:53;7.50;99.90
45619;DHT22;31343;47.520;19.144;2023-04-03T05:59:20;7.70;99.90
45619;DHT22;31343;47.520;19.144;2023-04-03T06:01:46;7.80;99.90
45619;DHT22;31343;47.520;19.144;2023-04-03T06:04:13;8.00;99.90
45619;DHT22;31343;47.520;19.144;2023-04-03T06:06:47;8.00;99.90
45619;DHT22;31343;47.520;19.144;2023-04-03T06:09:14;8.00;99.90
45619;DHT22;31343;47.520;19.144;2023-04-03T06:11:39;8.20;99.90
45619;DHT22;31343;47.520;19.144;2023-04-03T06:14:06;8.20;99.90
45619;DHT22;31343;47.520;19.144;2023-04-03T06:16:32;8.20;99.90
45619;DHT22;31343;47.520;19.144;2023-04-03T06:18:57;8.50;99.90
45619;DHT22;31343;47.520;19.144;2023-04-03T06:21:23;8.60;99.40
45619;DHT22;31343;47.520;19.144;2023-04-03T06:23:49;8.80;98.80
45619;DHT22;31343;47.520;19.144;2023-04-03T06:26:15;9.30;98.50
45619;DHT22;31343;47.520;19.144;2023-04-03T06:28:41;9.70;97.20
45619;DHT22;31343;47.520;19.144;2023-04-03T06:31:06;10.10;96.80
45619;DHT22;31343;47.520;19.144;2023-04-03T06:33:32;10.30;95.20
45619;DHT22;31343;47.520;19.144;2023-04-03T06:35:58;10.60;94.70
45619;DHT22;31343;47.520;19.144;2023-04-03T06:38:24;11.40;94.30
45619;DHT22;31343;47.520;19.144;2023-04-03T06:40:50;13.30;91.40
45619;DHT22;31343;47.520;19.144;2023-04-03T06:43:17;13.50;87.70
45619;DHT22;31343;47.520;19.144;2023-04-03T06:45:43;13.30;87.00
45619;DHT22;31343;47.520;19.144;2023-04-03T06:48:09;13.30;87.90
45619;DHT22;31343;47.520;19.144;2023-04-03T06:50:34;13.20;85.80
45619;DHT22;31343;47.520;19.144;2023-04-03T06:53:00;13.00;88.10
45619;DHT22;31343;47.520;19.144;2023-04-03T06:55:26;12.50;87.50
45619;DHT22;31343;47.520;19.144;2023-04-03T06:57:52;12.20;89.50
45619;DHT22;31343;47.520;19.144;2023-04-03T07:00:18;11.60;90.30
45619;DHT22;31343;47.520;19.144;2023-04-03T07:02:44;11.40;90.80
45619;DHT22;31343;47.520;19.144;2023-04-03T07:05:11;11.30;91.10
45619;DHT22;31343;47.520;19.144;2023-04-03T07:07:37;11.60;90.40
45619;DHT22;31343;47.520;19.144;2023-04-03T07:10:05;11.80;90.30
45619;DHT22;31343;47.520;19.144;2023-04-03T07:12:31;11.60;90.50
45619;DHT22;31343;47.520;19.144;2023-04-03T07:14:57;11.60;90.20
45619;DHT22;31343;47.520;19.144;2023-04-03T07:17:24;11.30;90.30
45619;DHT22;31343;47.520;19.144;2023-04-03T07:19:51;11.30;90.90
45619;DHT22;31343;47.520;19.144;2023-04-03T07:22:17;11.10;90.60
45619;DHT22;31343;47.520;19.144;2023-04-03T07:24:43;10.90;91.20
45619;DHT22;31343;47.520;19.144;2023-04-03T07:27:09;10.60;91.20
45619;DHT22;31343;47.520;19.144;2023-04-03T07:29:36;10.60;91.40
45619;DHT22;31343;47.520;19.144;2023-04-03T07:32:02;10.80;91.10
45619;DHT22;31343;47.520;19.144;2023-04-03T07:34:29;10.90;90.90
45619;DHT22;31343;47.520;19.144;2023-04-03T07:36:56;11.10;90.60
45619;DHT22;31343;47.520;19.144;2023-04-03T07:39:22;11.30;90.60
45619;DHT22;31343;47.520;19.144;2023-04-03T07:41:47;11.50;90.80
45619;DHT22;31343;47.520;19.144;2023-04-03T07:44:13;11.60;90.20
45619;DHT22;31343;47.520;19.144;2023-04-03T07:46:39;11.40;90.50
45619;DHT22;31343;47.520;19.144;2023-04-03T07:49:06;11.40;90.20
45619;DHT22;31343;47.520;19.144;2023-04-03T07:51:31;11.10;91.10
45619;DHT22;31343;47.520;19.144;2023-04-03T07:53:57;10.80;90.60
45619;DHT22;31343;47.520;19.144;2023-04-03T07:56:23;10.70;91.20
45619;DHT22;31343;47.520;19.144;2023-04-03T07:58:50;10.70;91.70
45619;DHT22;31343;47.520;19.144;2023-04-03T08:01:16;10.80;91.10
45619;DHT22;31343;47.520;19.144;2023-04-03T08:03:42;10.70;91.50
45619;DHT22;31343;47.520;19.144;2023-04-03T08:06:08;10.80;91.70
45619;DHT22;31343;47.520;19.144;2023-04-03T08:08:35;10.70;91.20
45619;DHT22;31343;47.520;19.144;2023-04-03T08:11:02;10.70;91.50
45619;DHT22;31343;47.520;19.144;2023-04-03T08:13:29;10.60;91.80
45619;DHT22;31343;47.520;19.144;2023-04-03T08:15:56;10.70;91.50
45619;DHT22;31343;47.520;19.144;2023-04-03T08:18:23;10.70;91.50
45619;DHT22;31343;47.520;19.144;2023-04-03T08:20:50;10.70;91.70
45619;DHT22;31343;47.520;19.144;2023-04-03T08:23:18;10.90;90.70
45619;DHT22;31343;47.520;19.144;2023-04-03T08:25:44;11.00;91.10
45619;DHT22;31343;47.520;19.144;2023-04-03T08:28:11;11.20;90.40
45619;DHT22;31343;47.520;19.144;2023-04-03T08:30:40;11.20;90.70
45619;DHT22;31343;47.520;19.144;2023-04-03T08:33:06;11.20;90.80
45619;DHT22;31343;47.520;19.144;2023-04-03T08:35:32;11.30;90.10
45619;DHT22;31343;47.520;19.144;2023-04-03T08:37:58;11.60;89.40
45619;DHT22;31343;47.520;19.144;2023-04-03T08:40:25;11.50;90.00
45619;DHT22;31343;47.520;19.144;2023-04-03T08:43:01;11.80;87.50
45619;DHT22;31343;47.520;19.144;2023-04-03T08:45:49;12.00;88.30
45619;DHT22;31343;47.520;19.144;2023-04-03T08:48:19;12.00;89.90
45619;DHT22;31343;47.520;19.144;2023-04-03T08:50:50;12.20;87.70
45619;DHT22;31343;47.520;19.144;2023-04-03T08:53:27;12.40;87.50
45619;DHT22;31343;47.520;19.144;2023-04-03T08:55:55;12.80;89.70
45619;DHT22;31343;47.520;19.144;2023-04-03T08:58:32;13.00;86.30
45619;DHT22;31343;47.520;19.144;2023-04-03T09:01:03;13.20;86.80
45619;DHT22;31343;47.520;19.144;2023-04-03T09:03:36;13.00;85.40
45619;DHT22;31343;47.520;19.144;2023-04-03T09:14:36;12.80;87.30
45619;DHT22;31343;47.520;19.144;2023-04-03T09:17:09;13.20;85.40
45619;DHT22;31343;47.520;19.144;2023-04-03T09:19:56;13.10;82.50
45619;DHT22;31343;47.520;19.144;2023-04-03T09:22:25;13.10;82.60
45619;DHT22;31343;47.520;19.144;2023-04-03T09:27:27;12.60;85.80
45619;DHT22;31343;47.520;19.144;2023-04-03T09:29:55;12.80;84.40
45619;DHT22;31343;47.520;19.144;2023-04-03T09:32:31;12.70;83.10
45619;DHT22;31343;47.520;19.144;2023-04-03T09:35:02;12.20;84.10
45619;DHT22;31343;47.520;19.144;2023-04-03T09:37:38;12.30;85.60
45619;DHT22;31343;47.520;19.144;2023-04-03T09:42:57;12.30;82.50
45619;DHT22;31343;47.520;19.144;2023-04-03T09:45:35;12.30;84.90
45619;DHT22;31343;47.520;19.144;2023-04-03T09:50:34;12.50;83.40
45619;DHT22;31343;47.520;19.144;2023-04-03T09:53:06;12.60;83.40
45619;DHT22;31343;47.520;19.144;2023-04-03T09:55:33;12.70;84.90
45619;DHT22;31343;47.520;19.144;2023-04-03T09:58:27;13.10;83.60
45619;DHT22;31343;47.520;19.144;2023-04-03T10:00:59;13.10;81.60
45619;DHT22;31343;47.520;19.144;2023-04-03T10:03:33;13.20;80.60
45619;DHT22;31343;47.520;19.144;2023-04-03T10:06:01;13.70;83.70
45619;DHT22;31343;47.520;19.144;2023-04-03T10:08:33;13.80;80.60
45619;DHT22;31343;47.520;19.144;2023-04-03T10:11:09;13.70;80.00
45619;DHT22;31343;47.520;19.144;2023-04-03T10:13:35;13.50;79.70
45619;DHT22;31343;47.520;19.144;2023-04-03T10:16:12;13.20;80.90
45619;DHT22;31343;47.520;19.144;2023-04-03T10:18:44;13.30;78.60
45619;DHT22;31343;47.520;19.144;2023-04-03T10:21:55;13.20;79.80
45619;DHT22;31343;47.520;19.144;2023-04-03T10:27:31;13.00;78.90
45619;DHT22;31343;47.520;19.144;2023-04-03T10:30:09;12.40;78.70
45619;DHT22;31343;47.520;19.144;2023-04-03T10:35:24;11.60;80.70
45619;DHT22;31343;47.520;19.144;2023-04-03T10:40:52;11.90;84.80
45619;DHT22;31343;47.520;19.144;2023-04-03T10:46:52;10.90;84.40
45619;DHT22;31343;47.520;19.144;2023-04-03T10:49:45;10.70;85.30
45619;DHT22;31343;47.520;19.144;2023-04-03T10:55:28;11.20;85.10
45619;DHT22;31343;47.520;19.144;2023-04-03T10:57:57;11.60;85.70
45619;DHT22;31343;47.520;19.144;2023-04-03T11:00:37;11.90;81.70
45619;DHT22;31343;47.520;19.144;2023-04-03T11:03:13;12.20;80.00
45619;DHT22;31343;47.520;19.144;2023-04-03T11:05:45;12.40;82.00
45619;DHT22;31343;47.520;19.144;2023-04-03T11:11:08;12.60;78.60
45619;DHT22;31343;47.520;19.144;2023-04-03T11:16:59;12.90;78.60
45619;DHT22;31343;47.520;19.144;2023-04-03T11:19:57;13.30;78.80
45619;DHT22;31343;47.520;19.144;2023-04-03T11:22:53;13.40;78.10
45619;DHT22;31343;47.520;19.144;2023-04-03T11:25:25;13.30;77.40
45619;DHT22;31343;47.520;19.144;2023-04-03T11:28:00;13.40;78.70
45619;DHT22;31343;47.520;19.144;2023-04-03T11:35:48;13.60;74.30
45619;DHT22;31343;47.520;19.144;2023-04-03T11:38:31;13.40;76.00
45619;DHT22;31343;47.520;19.144;2023-04-03T11:41:03;13.30;75.50
45619;DHT22;31343;47.520;19.144;2023-04-03T11:43:32;13.10;76.20
45619;DHT22;31343;47.520;19.144;2023-04-03T11:46:03;13.00;77.20
45619;DHT22;31343;47.520;19.144;2023-04-03T11:51:01;13.00;77.50
45619;DHT22;31343;47.520;19.144;2023-04-03T11:53:35;12.80;77.30
45619;DHT22;31343;47.520;19.144;2023-04-03T11:56:04;12.70;77.70
45619;DHT22;31343;47.520;19.144;2023-04-03T11:58:32;12.70;77.20
45619;DHT22;31343;47.520;19.144;2023-04-03T12:08:48;12.60;79.80
45619;DHT22;31343;47.520;19.144;2023-04-03T12:11:30;12.40;79.60
45619;DHT22;31343;47.520;19.144;2023-04-03T12:35:03;12.30;78.60
45619;DHT22;31343;47.520;19.144;2023-04-03T12:54:01;12.10;77.70
45619;DHT22;31343;47.520;19.144;2023-04-03T12:56:30;12.10;78.30
45619;DHT22;31343;47.520;19.144;2023-04-03T13:01:39;12.10;78.10
45619;DHT22;31343;47.520;19.144;2023-04-03T13:04:05;11.90;78.80
45619;DHT22;31343;47.520;19.144;2023-04-03T13:06:36;12.00;79.50
45619;DHT22;31343;47.520;19.144;2023-04-03T13:09:03;12.20;77.10
45619;DHT22;31343;47.520;19.144;2023-04-03T13:11:40;12.30;78.60
45619;DHT22;31343;47.520;19.144;2023-04-03T13:14:20;12.30;77.40
45619;DHT22;31343;47.520;19.144;2023-04-03T13:16:58;12.30;76.80
45619;DHT22;31343;47.520;19.144;2023-04-03T13:19:26;12.60;79.40
45619;DHT22;31343;47.520;19.144;2023-04-03T13:22:34;12.70;77.10
45619;DHT22;31343;47.520;19.144;2023-04-03T13:25:07;13.00;75.30
45619;DHT22;31343;47.520;19.144;2023-04-03T13:27:35;13.10;75.40
45619;DHT22;31343;47.520;19.144;2023-04-03T13:30:03;13.10;76.20
45619;DHT22;31343;47.520;19.144;2023-04-03T13:32:31;13.30;75.40
45619;DHT22;31343;47.520;19.144;2023-04-03T13:34:58;13.20;74.80
45619;DHT22;31343;47.520;19.144;2023-04-03T13:37:33;13.50;74.20
45619;DHT22;31343;47.520;19.144;2023-04-03T13:42:28;13.50;73.80
45619;DHT22;31343;47.520;19.144;2023-04-03T13:45:27;13.70;74.60
45619;DHT22;31343;47.520;19.144;2023-04-03T13:48:18;13.70;73.40
45619;DHT22;31343;47.520;19.144;2023-04-03T13:51:27;13.80;72.10
45619;DHT22;31343;47.520;19.144;2023-04-03T13:53:59;13.80;73.60
45619;DHT22;31343;47.520;19.144;2023-04-03T13:59:20;13.70;72.60
45619;DHT22;31343;47.520;19.144;2023-04-03T14:02:48;13.70;72.80
45619;DHT22;31343;47.520;19.144;2023-04-03T14:04:58;13.70;73.40
45619;DHT22;31343;47.520;19.144;2023-04-03T14:07:27;13.70;75.60
45619;DHT22;31343;47.520;19.144;2023-04-03T14:09:53;13.60;73.50
45619;DHT22;31343;47.520;19.144;2023-04-03T14:12:25;13.70;73.30
45619;DHT22;31343;47.520;19.144;2023-04-03T14:14:52;13.60;73.60
45619;DHT22;31343;47.520;19.144;2023-04-03T14:17:21;13.50;73.10
45619;DHT22;31343;47.520;19.144;2023-04-03T14:19:49;13.60;72.60
45619;DHT22;31343;47.520;19.144;2023-04-03T14:22:22;13.70;71.90
45619;DHT22;31343;47.520;19.144;2023-04-03T14:24:49;13.50;71.70
45619;DHT22;31343;47.520;19.144;2023-04-03T14:27:34;13.50;73.30
45619;DHT22;31343;47.520;19.144;2023-04-03T14:30:00;13.60;73.60
45619;DHT22;31343;47.520;19.144;2023-04-03T14:32:29;13.50;72.60
45619;DHT22;31343;47.520;19.144;2023-04-03T14:34:55;13.40;70.90
45619;DHT22;31343;47.520;19.144;2023-04-03T14:37:24;13.20;73.00
45619;DHT22;31343;47.520;19.144;2023-04-03T14:39:51;13.30;74.20
45619;DHT22;31343;47.520;19.144;2023-04-03T14:42:24;13.00;72.50
45619;DHT22;31343;47.520;19.144;2023-04-03T14:44:51;12.70;73.10
45619;DHT22;31343;47.520;19.144;2023-04-03T14:47:21;12.30;73.70
45619;DHT22;31343;47.520;19.144;2023-04-03T14:49:48;12.20;74.40
45619;DHT22;31343;47.520;19.144;2023-04-03T14:52:28;12.20;76.40
45619;DHT22;31343;47.520;19.144;2023-04-03T14:54:55;12.30;77.90
45619;DHT22;31343;47.520;19.144;2023-04-03T14:57:24;12.30;75.90
45619;DHT22;31343;47.520;19.144;2023-04-03T14:59:50;12.40;76.50
45619;DHT22;31343;47.520;19.144;2023-04-03T15:02:43;12.10;75.70
45619;DHT22;31343;47.520;19.144;2023-04-03T15:05:10;12.00;76.10
45619;DHT22;31343;47.520;19.144;2023-04-03T15:07:39;11.80;76.20
45619;DHT22;31343;47.520;19.144;2023-04-03T15:12:41;11.50;76.40
45619;DHT22;31343;47.520;19.144;2023-04-03T15:15:08;11.40;76.70
45619;DHT22;31343;47.520;19.144;2023-04-03T15:17:34;11.30;76.70
45619;DHT22;31343;47.520;19.144;2023-04-03T15:20:01;11.40;78.90
45619;DHT22;31343;47.520;19.144;2023-04-03T15:22:27;11.50;78.10
45619;DHT22;31343;47.520;19.144;2023-04-03T15:24:53;11.50;78.90
45619;DHT22;31343;47.520;19.144;2023-04-03T15:27:19;11.50;76.60
45619;DHT22;31343;47.520;19.144;2023-04-03T15:29:45;11.50;77.40
45619;DHT22;31343;47.520;19.144;2023-04-03T15:32:12;11.40;77.00
45619;DHT22;31343;47.520;19.144;2023-04-03T15:34:38;11.40;78.20
45619;DHT22;31343;47.520;19.144;2023-04-03T15:37:04;11.50;78.90
45619;DHT22;31343;47.520;19.144;2023-04-03T15:39:31;11.50;78.20
45619;DHT22;31343;47.520;19.144;2023-04-03T15:41:57;11.50;77.30
45619;DHT22;31343;47.520;19.144;2023-04-03T15:44:32;11.40;77.30
45619;DHT22;31343;47.520;19.144;2023-04-03T15:46:59;11.30;77.20
45619;DHT22;31343;47.520;19.144;2023-04-03T15:49:27;11.30;77.40
45619;DHT22;31343;47.520;19.144;2023-04-03T15:51:53;11.30;78.20
45619;DHT22;31343;47.520;19.144;2023-04-03T15:54:18;11.20;78.00
45619;DHT22;31343;47.520;19.144;2023-04-03T15:56:44;11.10;78.50
45619;DHT22;31343;47.520;19.144;2023-04-03T15:59:10;11.10;78.30
45619;DHT22;31343;47.520;19.144;2023-04-03T16:01:37;11.10;79.80
45619;DHT22;31343;47.520;19.144;2023-04-03T16:04:05;11.00;77.60
45619;DHT22;31343;47.520;19.144;2023-04-03T16:06:32;10.90;79.10
45619;DHT22;31343;47.520;19.144;2023-04-03T16:08:59;10.80;76.00
45619;DHT22;31343;47.520;19.144;2023-04-03T16:11:26;10.40;76.10
45619;DHT22;31343;47.520;19.144;2023-04-03T16:13:53;10.10;75.90
45619;DHT22;31343;47.520;19.144;2023-04-03T16:16:19;9.90;75.20
45619;DHT22;31343;47.520;19.144;2023-04-03T16:18:46;9.60;76.30
45619;DHT22;31343;47.520;19.144;2023-04-03T16:21:12;9.60;76.80
45619;DHT22;31343;47.520;19.144;2023-04-03T16:23:40;9.50;76.70
45619;DHT22;31343;47.520;19.144;2023-04-03T16:26:06;9.50;76.30
45619;DHT22;31343;47.520;19.144;2023-04-03T16:28:32;9.50;76.50
45619;DHT22;31343;47.520;19.144;2023-04-03T16:30:57;9.50;77.00
45619;DHT22;31343;47.520;19.144;2023-04-03T16:33:25;9.50;76.60
45619;DHT22;31343;47.520;19.144;2023-04-03T16:35:51;9.50;76.70
45619;DHT22;31343;47.520;19.144;2023-04-03T16:38:17;9.50;76.30
45619;DHT22;31343;47.520;19.144;2023-04-03T16:40:45;9.40;75.70
45619;DHT22;31343;47.520;19.144;2023-04-03T16:43:11;9.40;77.00
45619;DHT22;31343;47.520;19.144;2023-04-03T16:45:37;9.20;75.90
45619;DHT22;31343;47.520;19.144;2023-04-03T16:48:03;9.10;76.10
45619;DHT22;31343;47.520;19.144;2023-04-03T16:50:29;9.00;76.60
45619;DHT22;31343;47.520;19.144;2023-04-03T16:52:54;9.00;76.80
45619;DHT22;31343;47.520;19.144;2023-04-03T16:55:20;9.00;76.40
45619;DHT22;31343;47.520;19.144;2023-04-03T16:57:46;9.00;78.10
45619;DHT22;31343;47.520;19.144;2023-04-03T17:00:12;8.80;76.20
45619;DHT22;31343;47.520;19.144;2023-04-03T17:02:39;8.80;76.80
45619;DHT22;31343;47.520;19.144;2023-04-03T17:05:06;8.80;77.30
45619;DHT22;31343;47.520;19.144;2023-04-03T17:07:34;8.90;78.70
45619;DHT22;31343;47.520;19.144;2023-04-03T17:10:00;8.90;78.20
45619;DHT22;31343;47.520;19.144;2023-04-03T17:12:26;9.10;79.30
45619;DHT22;31343;47.520;19.144;2023-04-03T17:14:51;9.10;78.70
45619;DHT22;31343;47.520;19.144;2023-04-03T17:17:22;9.10;79.00
45619;DHT22;31343;47.520;19.144;2023-04-03T17:19:48;9.10;77.60
45619;DHT22;31343;47.520;19.144;2023-04-03T17:22:14;9.00;78.20
45619;DHT22;31343;47.520;19.144;2023-04-03T17:24:42;8.90;78.20
45619;DHT22;31343;47.520;19.144;2023-04-03T17:27:08;9.00;77.80